Time;durP1;ratioP1;P1;durP2;ratioP2;P2;SDS_P1;SDS_P2;PMS_P1;PMS_P2;Temp;Humidity;BMP_temperature;BMP_pressure;BME280_temperature;BME280_humidity;BME280_pressure;Samples;Min_cycle;Max_cycle;Signal;HPM_P1;HPM_P2
2022/05/24 00:02:12;;;;;;;;;;;19.80;54.90;;;;;;5101354;28;19928;-45
2022/05/24 00:04:38;;;;;;;;;;;19.80;56.40;;;;;;5126457;27;19931;-45
2022/05/24 00:07:04;;;;;;;;;;;20.60;61.30;;;;;;5121481;28;20397;-44
2022/05/24 00:09:30;;;;;;;;;;;21.30;62.80;;;;;;5121289;28;20298;-45
2022/05/24 00:11:55;;;;;;;;;;;21.70;61.80;;;;;;5124712;28;19978;-46
2022/05/24 00:17:06;;;;;;;;;;;20.30;57.30;;;;;;5120868;28;20359;-45
2022/05/24 00:19:32;;;;;;;;;;;20.00;56.00;;;;;;5126680;28;19938;-45
2022/05/24 00:21:58;;;;;;;;;;;19.90;54.90;;;;;;5120864;28;19929;-45
2022/05/24 00:24:24;;;;;;;;;;;19.80;54.60;;;;;;5121333;28;19931;-46
2022/05/24 00:26:49;;;;;;;;;;;20.30;60.40;;;;;;5106967;28;20288;-49
2022/05/24 00:29:15;;;;;;;;;;;21.10;62.40;;;;;;5120693;28;19932;-46
2022/05/24 00:31:41;;;;;;;;;;;21.70;61.80;;;;;;5124061;28;19924;-45
2022/05/24 00:34:07;;;;;;;;;;;20.80;59.30;;;;;;5120325;28;19928;-46
2022/05/24 00:36:33;;;;;;;;;;;20.30;57.80;;;;;;5120788;28;20286;-44
2022/05/24 00:38:58;;;;;;;;;;;19.90;56.60;;;;;;5108132;28;19985;-45
2022/05/24 00:41:31;;;;;;;;;;;19.80;55.10;;;;;;5120956;28;19928;-46
2022/05/24 00:44:01;;;;;;;;;;;19.70;54.80;;;;;;5102701;28;20207;-48
2022/05/24 00:46:39;;;;;;;;;;;20.20;59.60;;;;;;5108085;28;19980;-49
2022/05/24 00:49:06;;;;;;;;;;;20.90;62.50;;;;;;5119033;28;19923;-46
2022/05/24 00:51:38;;;;;;;;;;;21.70;62.50;;;;;;5115588;28;19924;-44
2022/05/24 00:54:04;;;;;;;;;;;20.90;60.10;;;;;;5125969;28;19927;-47
2022/05/24 00:56:35;;;;;;;;;;;20.20;58.30;;;;;;5102663;28;20431;-45
2022/05/24 00:59:04;;;;;;;;;;;19.90;56.60;;;;;;5106885;28;19952;-54
2022/05/24 01:01:40;;;;;;;;;;;19.70;55.50;;;;;;5123711;28;19923;-45
2022/05/24 01:04:06;;;;;;;;;;;20.00;58.60;;;;;;5120569;28;19927;-46
2022/05/24 01:06:32;;;;;;;;;;;20.70;63.10;;;;;;5124754;28;19988;-47
2022/05/24 01:08:58;;;;;;;;;;;21.40;63.20;;;;;;5118742;28;19992;-48
2022/05/24 01:11:24;;;;;;;;;;;21.30;61.10;;;;;;5119866;28;19956;-46
2022/05/24 01:13:50;;;;;;;;;;;20.40;59.10;;;;;;5125806;28;19928;-45
2022/05/24 01:16:16;;;;;;;;;;;20.00;57.30;;;;;;5120718;27;19924;-44
2022/05/24 01:18:41;;;;;;;;;;;19.90;55.80;;;;;;5124137;28;20050;-45
2022/05/24 01:21:09;;;;;;;;;;;19.90;56.60;;;;;;5129447;28;19927;-46
2022/05/24 01:23:55;;;;;;;;;;;20.60;62.30;;;;;;5123809;28;19930;-45
2022/05/24 01:26:24;;;;;;;;;;;21.30;63.40;;;;;;5121639;28;20401;-46
2022/05/24 01:28:51;;;;;;;;;;;21.50;61.60;;;;;;5128540;28;20066;-45
2022/05/24 01:31:17;;;;;;;;;;;20.50;59.50;;;;;;5105312;28;20060;-44
2022/05/24 01:36:28;;;;;;;;;;;19.80;56.00;;;;;;5129263;28;19923;-46
2022/05/24 01:38:57;;;;;;;;;;;19.80;54.80;;;;;;5124081;28;20021;-50
2022/05/24 01:41:24;;;;;;;;;;;20.30;60.70;;;;;;5129359;28;19924;-44
2022/05/24 01:43:53;;;;;;;;;;;20.90;63.40;;;;;;5121977;28;19932;-47
2022/05/24 01:46:21;;;;;;;;;;;21.60;63.00;;;;;;5122403;28;19945;-45
2022/05/24 01:48:51;;;;;;;;;;;20.90;60.10;;;;;;5128569;28;19981;-46
2022/05/24 01:51:18;;;;;;;;;;;20.20;58.50;;;;;;5105324;28;19927;-44
2022/05/24 01:53:48;;;;;;;;;;;20.00;56.50;;;;;;5105121;28;19923;-45
2022/05/24 01:56:17;;;;;;;;;;;19.90;55.50;;;;;;5110690;28;19930;-46
2022/05/24 01:58:50;;;;;;;;;;;19.90;57.90;;;;;;5123525;28;19924;-45
2022/05/24 02:01:37;;;;;;;;;;;20.70;62.60;;;;;;5122895;28;20073;-46
2022/05/24 02:04:03;;;;;;;;;;;21.40;62.80;;;;;;5127153;28;20212;-45
2022/05/24 02:06:30;;;;;;;;;;;21.00;60.50;;;;;;5104464;28;20044;-48
2022/05/24 02:08:55;;;;;;;;;;;20.30;58.20;;;;;;5123274;28;19929;-46
2022/05/24 02:11:23;;;;;;;;;;;20.00;56.80;;;;;;5128516;28;19931;-46
2022/05/24 02:13:48;;;;;;;;;;;20.00;55.30;;;;;;5123169;28;19924;-47
2022/05/24 02:16:15;;;;;;;;;;;19.70;55.00;;;;;;5128592;28;20262;-44
2022/05/24 02:18:43;;;;;;;;;;;20.30;60.90;;;;;;5123133;28;19987;-46
2022/05/24 02:21:09;;;;;;;;;;;21.10;62.80;;;;;;5102520;28;20406;-44
2022/05/24 02:23:45;;;;;;;;;;;21.80;62.10;;;;;;5127310;28;19939;-46
2022/05/24 02:26:11;;;;;;;;;;;20.90;59.40;;;;;;5122582;28;20019;-46
2022/05/24 02:28:37;;;;;;;;;;;20.20;57.60;;;;;;5123095;27;19923;-44
2022/05/24 02:31:04;;;;;;;;;;;20.00;56.30;;;;;;5128246;28;19946;-47
2022/05/24 02:33:30;;;;;;;;;;;19.90;55.10;;;;;;5122976;28;19980;-49
2022/05/24 02:35:56;;;;;;;;;;;19.70;54.80;;;;;;5123760;28;20032;-52
2022/05/24 02:38:22;;;;;;;;;;;20.30;60.20;;;;;;5127198;28;19935;-50
2022/05/24 02:43:32;;;;;;;;;;;21.60;62.40;;;;;;5126313;28;20059;-54
2022/05/24 02:45:58;;;;;;;;;;;20.80;59.60;;;;;;5124110;28;19927;-46
2022/05/24 02:48:24;;;;;;;;;;;20.20;57.80;;;;;;5122872;28;19980;-44
2022/05/24 02:50:50;;;;;;;;;;;19.80;56.60;;;;;;5128338;28;19973;-45
2022/05/24 02:53:16;;;;;;;;;;;19.70;55.70;;;;;;5122996;28;19976;-48
2022/05/24 02:55:41;;;;;;;;;;;20.30;60.40;;;;;;5122773;28;20010;-46
2022/05/24 02:58:07;;;;;;;;;;;20.90;63.00;;;;;;5125394;28;19923;-47
2022/05/24 03:00:33;;;;;;;;;;;21.60;62.50;;;;;;5121822;28;19980;-46
2022/05/24 03:02:59;;;;;;;;;;;21.00;60.40;;;;;;5124299;28;19923;-53
2022/05/24 03:05:25;;;;;;;;;;;20.30;58.40;;;;;;5126128;28;20375;-44
2022/05/24 03:10:35;;;;;;;;;;;19.90;55.30;;;;;;5127858;28;20282;-49
2022/05/24 03:15:45;;;;;;;;;;;19.90;57.80;;;;;;5116706;28;19929;-46
2022/05/24 03:18:12;;;;;;;;;;;20.80;62.50;;;;;;5126221;28;20018;-43
2022/05/24 03:20:38;;;;;;;;;;;21.50;62.70;;;;;;5121824;28;19923;-45
2022/05/24 03:23:04;;;;;;;;;;;21.30;60.60;;;;;;5103583;28;19927;-48
2022/05/24 03:25:31;;;;;;;;;;;20.50;58.20;;;;;;5127610;28;19944;-45
2022/05/24 03:27:57;;;;;;;;;;;20.00;56.90;;;;;;5122254;28;19931;-45
2022/05/24 03:30:24;;;;;;;;;;;19.80;55.70;;;;;;5121855;28;19931;-46
2022/05/24 03:32:49;;;;;;;;;;;19.80;54.80;;;;;;5127000;28;19930;-46
2022/05/24 03:35:15;;;;;;;;;;;20.30;59.50;;;;;;5119634;28;20409;-46
2022/05/24 03:37:41;;;;;;;;;;;20.90;62.70;;;;;;5126655;28;20349;-51
2022/05/24 03:40:08;;;;;;;;;;;21.60;62.50;;;;;;5121580;27;20428;-50
2022/05/24 03:42:33;;;;;;;;;;;21.10;59.60;;;;;;5122089;28;19970;-45
2022/05/24 03:44:59;;;;;;;;;;;20.30;58.00;;;;;;5127292;28;20366;-46
2022/05/24 03:47:25;;;;;;;;;;;20.00;56.90;;;;;;5122199;28;19924;-46
2022/05/24 03:49:51;;;;;;;;;;;19.80;55.70;;;;;;5121745;28;20134;-45
2022/05/24 03:52:16;;;;;;;;;;;19.80;56.20;;;;;;5125735;28;19924;-46
2022/05/24 03:54:42;;;;;;;;;;;20.60;61.40;;;;;;5119995;28;19923;-46
2022/05/24 03:59:52;;;;;;;;;;;21.70;61.50;;;;;;5127176;28;19948;-44
2022/05/24 04:02:18;;;;;;;;;;;20.70;59.30;;;;;;5121339;28;20028;-45
2022/05/24 04:04:43;;;;;;;;;;;20.30;57.20;;;;;;5127043;28;20337;-44
2022/05/24 04:07:09;;;;;;;;;;;19.90;56.10;;;;;;5121248;28;19924;-45
2022/05/24 04:09:35;;;;;;;;;;;19.90;55.20;;;;;;5120986;28;19940;-49
2022/05/24 04:12:01;;;;;;;;;;;19.70;54.50;;;;;;5124268;28;19927;-46
2022/05/24 04:14:30;;;;;;;;;;;19.90;58.30;;;;;;5120642;28;19928;-48
2022/05/24 04:16:56;;;;;;;;;;;20.70;61.60;;;;;;5120977;28;19953;-46
2022/05/24 04:19:22;;;;;;;;;;;21.40;62.40;;;;;;5126671;28;20033;-45
2022/05/24 04:21:48;;;;;;;;;;;21.30;60.20;;;;;;5121025;28;20382;-44
2022/05/24 04:24:14;;;;;;;;;;;20.30;58.50;;;;;;5124426;28;19923;-51
2022/05/24 04:26:39;;;;;;;;;;;20.20;56.60;;;;;;5123840;28;19976;-45
2022/05/24 04:29:05;;;;;;;;;;;19.80;56.00;;;;;;5119251;28;19934;-45
2022/05/24 04:31:31;;;;;;;;;;;19.80;55.90;;;;;;5124690;28;19927;-46
2022/05/24 04:33:57;;;;;;;;;;;20.50;61.30;;;;;;5120539;28;20010;-45
2022/05/24 04:36:23;;;;;;;;;;;21.20;62.70;;;;;;5120965;28;19950;-44
2022/05/24 04:38:48;;;;;;;;;;;21.50;61.10;;;;;;5126409;28;19936;-44
2022/05/24 04:43:59;;;;;;;;;;;20.20;56.50;;;;;;5121010;28;20277;-48
2022/05/24 04:46:24;;;;;;;;;;;19.80;55.60;;;;;;5126093;28;20286;-47
2022/05/24 04:48:50;;;;;;;;;;;20.00;57.90;;;;;;5118598;28;20008;-47
2022/05/24 04:51:16;;;;;;;;;;;20.70;62.40;;;;;;5123534;27;19928;-55
2022/05/24 04:53:42;;;;;;;;;;;21.40;62.40;;;;;;5121662;28;20298;-48
2022/05/24 04:56:08;;;;;;;;;;;21.30;59.90;;;;;;5102689;28;20002;-47
2022/05/24 04:58:33;;;;;;;;;;;20.30;58.00;;;;;;5126274;28;20358;-45
2022/05/24 05:00:59;;;;;;;;;;;20.00;56.70;;;;;;5120752;28;19928;-45
2022/05/24 05:03:25;;;;;;;;;;;19.90;55.50;;;;;;5120679;28;19976;-45
2022/05/24 05:05:51;;;;;;;;;;;19.80;54.90;;;;;;5124338;28;19931;-46
2022/05/24 05:08:17;;;;;;;;;;;20.10;57.80;;;;;;5119005;28;19934;-49
2022/05/24 05:10:43;;;;;;;;;;;20.80;61.90;;;;;;5122361;28;19927;-56
2022/05/24 05:13:08;;;;;;;;;;;21.50;61.60;;;;;;5123733;28;19923;-48
2022/05/24 05:15:34;;;;;;;;;;;21.20;59.30;;;;;;5120467;28;19927;-46
2022/05/24 05:18:04;;;;;;;;;;;20.30;58.00;;;;;;5125969;28;19923;-47
2022/05/24 05:20:31;;;;;;;;;;;20.00;56.30;;;;;;5120518;28;19928;-45
2022/05/24 05:22:56;;;;;;;;;;;19.70;55.70;;;;;;5120184;28;20370;-44
2022/05/24 05:25:22;;;;;;;;;;;19.50;55.00;;;;;;5123164;28;19931;-47
2022/05/24 05:27:48;;;;;;;;;;;20.30;59.00;;;;;;5119477;28;20411;-46
2022/05/24 05:32:58;;;;;;;;;;;21.60;61.20;;;;;;5121653;28;19934;-47
2022/05/24 05:35:24;;;;;;;;;;;20.80;59.10;;;;;;5120296;28;20385;-44
2022/05/24 05:37:50;;;;;;;;;;;20.30;56.90;;;;;;5121764;28;20286;-57
2022/05/24 05:40:15;;;;;;;;;;;20.10;55.60;;;;;;5124457;28;19927;-44
2022/05/24 05:42:42;;;;;;;;;;;19.80;54.80;;;;;;5100074;28;19927;-45
2022/05/24 05:45:10;;;;;;;;;;;19.80;56.50;;;;;;5123932;28;19933;-46
2022/05/24 05:47:36;;;;;;;;;;;20.60;61.00;;;;;;5119735;28;19927;-46
2022/05/24 05:50:03;;;;;;;;;;;21.30;61.20;;;;;;5119900;28;20028;-44
2022/05/24 05:52:28;;;;;;;;;;;21.50;59.70;;;;;;5106733;28;20011;-46
2022/05/24 05:54:54;;;;;;;;;;;20.50;57.80;;;;;;5120148;28;20367;-44
2022/05/24 05:57:20;;;;;;;;;;;20.00;56.40;;;;;;5119928;28;19924;-50
2022/05/24 05:59:46;;;;;;;;;;;19.90;55.20;;;;;;5105123;28;20240;-52
2022/05/24 06:02:12;;;;;;;;;;;19.70;54.80;;;;;;5117561;27;20367;-45
2022/05/24 06:04:38;;;;;;;;;;;20.40;59.30;;;;;;5128006;28;20031;-45
2022/05/24 06:07:04;;;;;;;;;;;21.10;61.20;;;;;;5123066;28;19924;-44
2022/05/24 06:09:29;;;;;;;;;;;21.80;60.30;;;;;;5123387;28;20018;-48
2022/05/24 06:11:55;;;;;;;;;;;20.80;58.00;;;;;;5128461;28;19927;-44
2022/05/24 06:14:21;;;;;;;;;;;20.40;56.60;;;;;;5123311;28;19928;-46
2022/05/24 06:16:47;;;;;;;;;;;20.00;55.50;;;;;;5123214;28;19938;-45
2022/05/24 06:19:13;;;;;;;;;;;19.80;54.90;;;;;;5127012;28;19977;-45
2022/05/24 06:21:38;;;;;;;;;;;20.00;56.70;;;;;;5121609;28;19931;-48
2022/05/24 06:24:05;;;;;;;;;;;20.70;61.00;;;;;;5128118;28;20287;-46
2022/05/24 06:26:31;;;;;;;;;;;21.40;60.50;;;;;;5122940;28;19923;-45
2022/05/24 06:28:59;;;;;;;;;;;21.40;58.30;;;;;;5122974;28;20026;-44
2022/05/24 06:31:25;;;;;;;;;;;20.60;57.00;;;;;;5128339;28;19931;-44
2022/05/24 06:33:51;;;;;;;;;;;20.20;55.80;;;;;;5122817;28;19974;-43
2022/05/24 06:36:17;;;;;;;;;;;20.00;54.80;;;;;;5122737;28;19939;-45
2022/05/24 06:38:42;;;;;;;;;;;19.70;54.20;;;;;;5125826;28;20524;-45
2022/05/24 06:41:08;;;;;;;;;;;20.10;58.90;;;;;;5121839;28;19923;-51
2022/05/24 06:43:34;;;;;;;;;;;21.00;60.60;;;;;;5125736;28;19928;-52
2022/05/24 06:46:00;;;;;;;;;;;21.70;59.80;;;;;;5125175;28;19931;-45
2022/05/24 06:48:26;;;;;;;;;;;20.80;57.70;;;;;;5122755;28;20018;-46
2022/05/24 06:50:52;;;;;;;;;;;20.40;56.30;;;;;;5128373;28;19946;-45
2022/05/24 06:53:17;;;;;;;;;;;20.10;55.20;;;;;;5122554;28;19928;-44
2022/05/24 06:55:43;;;;;;;;;;;19.80;54.80;;;;;;5121598;28;19930;-45
2022/05/24 06:58:09;;;;;;;;;;;19.80;53.70;;;;;;5126166;28;19971;-47
2022/05/24 07:03:19;;;;;;;;;;;21.20;60.00;;;;;;5122307;28;19923;-44
2022/05/24 07:05:45;;;;;;;;;;;21.80;58.40;;;;;;5127802;28;20330;-47
2022/05/24 07:08:11;;;;;;;;;;;20.80;57.20;;;;;;5122306;28;19923;-45
2022/05/24 07:10:37;;;;;;;;;;;20.10;56.30;;;;;;5127157;28;19927;-51
2022/05/24 07:13:10;;;;;;;;;;;19.90;54.80;;;;;;5123459;28;19943;-44
2022/05/24 07:15:36;;;;;;;;;;;19.80;54.20;;;;;;5118967;27;19934;-46
2022/05/24 07:18:02;;;;;;;;;;;20.00;58.90;;;;;;5126841;28;20300;-45
2022/05/24 07:20:28;;;;;;;;;;;20.90;60.20;;;;;;5121922;28;20136;-46
2022/05/24 07:22:54;;;;;;;;;;;21.60;59.40;;;;;;5122173;28;19992;-45
2022/05/24 07:25:20;;;;;;;;;;;20.80;57.70;;;;;;5127753;28;19929;-43
2022/05/24 07:27:46;;;;;;;;;;;20.20;56.10;;;;;;5103936;28;19952;-45
2022/05/24 07:30:12;;;;;;;;;;;19.70;55.20;;;;;;5122219;28;20456;-46
2022/05/24 07:32:38;;;;;;;;;;;19.90;56.30;;;;;;5125784;28;20384;-50
2022/05/24 07:35:04;;;;;;;;;;;20.60;60.40;;;;;;5120470;28;19923;-43
2022/05/24 07:37:30;;;;;;;;;;;21.30;59.90;;;;;;5126576;28;19934;-57
2022/05/24 07:48:09;;;;;;;;;;;21.40;55.50;;;;;;5127307;28;19923;-54
2022/05/24 07:50:35;;;;;;;;;;;21.50;54.60;;;;;;5120473;28;19930;-54
2022/05/24 07:53:00;;;;;;;;;;;21.80;53.70;;;;;;5124999;28;19923;-56
2022/05/24 07:55:26;;;;;;;;;;;21.80;53.10;;;;;;5117045;28;19930;-56
2022/05/24 07:57:52;;;;;;;;;;;21.80;52.60;;;;;;5121194;28;19931;-53
2022/05/24 08:00:18;;;;;;;;;;;21.80;52.90;;;;;;5126789;28;20419;-56
2022/05/24 08:02:44;;;;;;;;;;;21.70;53.50;;;;;;5121426;28;19928;-56
2022/05/24 08:05:10;;;;;;;;;;;21.80;52.60;;;;;;5121498;28;19924;-56
2022/05/24 08:07:36;;;;;;;;;;;21.80;52.70;;;;;;5127032;28;20293;-54
2022/05/24 08:10:03;;;;;;;;;;;21.90;52.90;;;;;;5119217;28;20022;-53
2022/05/24 08:12:29;;;;;;;;;;;22.00;52.40;;;;;;5125348;28;19923;-56
2022/05/24 08:14:55;;;;;;;;;;;22.00;52.40;;;;;;5120584;28;19975;-54
2022/05/24 08:17:20;;;;;;;;;;;22.00;53.30;;;;;;5121267;28;20393;-55
2022/05/24 08:19:46;;;;;;;;;;;22.10;52.40;;;;;;5126796;28;19935;-57
2022/05/24 08:22:12;;;;;;;;;;;22.00;51.90;;;;;;5121246;28;19923;-54
2022/05/24 08:24:38;;;;;;;;;;;22.10;51.90;;;;;;5121477;28;20498;-54
2022/05/24 08:27:04;;;;;;;;;;;22.10;52.00;;;;;;5126049;27;19929;-53
2022/05/24 08:29:30;;;;;;;;;;;22.20;52.00;;;;;;5114818;28;20521;-56
2022/05/24 08:31:55;;;;;;;;;;;22.30;50.90;;;;;;5105449;28;19938;-53
2022/05/24 08:34:21;;;;;;;;;;;22.30;50.90;;;;;;5121935;28;19980;-54
2022/05/24 08:36:47;;;;;;;;;;;22.40;50.50;;;;;;5102556;28;20370;-52
2022/05/24 08:39:13;;;;;;;;;;;22.40;50.30;;;;;;5126666;28;19923;-56
2022/05/24 08:41:55;;;;;;;;;;;21.30;52.40;;;;;;5121242;28;20211;-55
2022/05/24 08:49:52;;;;;;;;;;;21.50;53.60;;;;;;5122262;28;19927;-57
2022/05/24 08:52:18;;;;;;;;;;;21.50;53.40;;;;;;5085267;28;19927;-57
2022/05/24 08:54:44;;;;;;;;;;;21.50;53.40;;;;;;5126216;28;20001;-57
2022/05/24 08:57:11;;;;;;;;;;;21.60;52.30;;;;;;5120681;28;19971;-57
2022/05/24 08:59:38;;;;;;;;;;;21.70;52.00;;;;;;5120855;28;19976;-58
2022/05/24 09:02:04;;;;;;;;;;;21.60;51.50;;;;;;5107773;28;20392;-57
2022/05/24 09:04:30;;;;;;;;;;;21.60;51.20;;;;;;5100479;28;19924;-57
2022/05/24 09:06:59;;;;;;;;;;;21.60;50.90;;;;;;5118932;28;19935;-58
2022/05/24 09:09:28;;;;;;;;;;;21.70;50.70;;;;;;5125508;28;20026;-56
2022/05/24 09:12:13;;;;;;;;;;;21.60;50.60;;;;;;5100723;28;19949;-56
2022/05/24 09:14:45;;;;;;;;;;;21.70;50.50;;;;;;5120660;28;20388;-56
2022/05/24 09:17:14;;;;;;;;;;;21.70;50.40;;;;;;5126012;28;20416;-58
2022/05/24 09:19:40;;;;;;;;;;;21.70;49.90;;;;;;5102072;28;19953;-57
2022/05/24 09:22:06;;;;;;;;;;;21.70;49.60;;;;;;5125169;28;20474;-57
2022/05/24 09:24:56;;;;;;;;;;;21.80;49.10;;;;;;5117988;28;19924;-57
2022/05/24 09:27:22;;;;;;;;;;;21.80;48.80;;;;;;5119834;28;19924;-58
2022/05/24 09:29:55;;;;;;;;;;;21.70;48.90;;;;;;5125650;28;19927;-58
2022/05/24 09:32:21;;;;;;;;;;;21.80;48.70;;;;;;5120539;28;19930;-56
2022/05/24 09:34:47;;;;;;;;;;;21.80;48.50;;;;;;5101961;28;19924;-57
2022/05/24 09:37:22;;;;;;;;;;;21.80;48.30;;;;;;5107762;28;19927;-58
2022/05/24 09:40:02;;;;;;;;;;;21.80;48.20;;;;;;5123933;28;19937;-58
2022/05/24 09:42:30;;;;;;;;;;;21.80;47.90;;;;;;5121317;28;20325;-57
2022/05/24 09:45:00;;;;;;;;;;;21.80;47.40;;;;;;5128196;28;19928;-57
2022/05/24 09:47:36;;;;;;;;;;;21.80;47.30;;;;;;5123364;28;19923;-57
2022/05/24 09:50:17;;;;;;;;;;;21.90;47.00;;;;;;5123691;28;20078;-58
2022/05/24 09:52:46;;;;;;;;;;;21.80;46.80;;;;;;5129096;28;19923;-57
2022/05/24 09:55:12;;;;;;;;;;;21.90;46.40;;;;;;5123692;28;20428;-58
2022/05/24 09:57:38;;;;;;;;;;;21.80;46.40;;;;;;5105296;28;19923;-58
2022/05/24 10:00:09;;;;;;;;;;;21.90;46.40;;;;;;5127036;28;20302;-59
2022/05/24 10:02:36;;;;;;;;;;;21.80;46.20;;;;;;5104000;28;20295;-59
2022/05/24 10:05:02;;;;;;;;;;;21.80;46.00;;;;;;5122941;28;19972;-58
2022/05/24 10:07:29;;;;;;;;;;;21.90;45.70;;;;;;5110621;28;19973;-58
2022/05/24 10:10:04;;;;;;;;;;;21.80;45.90;;;;;;5123558;28;19923;-59
2022/05/24 10:12:48;;;;;;;;;;;21.90;45.60;;;;;;5129143;28;19959;-56
2022/05/24 10:15:21;;;;;;;;;;;21.80;45.70;;;;;;5128962;28;20298;-57
2022/05/24 10:17:47;;;;;;;;;;;21.80;45.70;;;;;;5103967;28;20018;-59
2022/05/24 10:20:13;;;;;;;;;;;21.90;45.60;;;;;;5126707;28;19923;-58
2022/05/24 10:22:44;;;;;;;;;;;21.90;45.40;;;;;;5122392;28;20301;-57
2022/05/24 10:25:29;;;;;;;;;;;22.00;44.90;;;;;;5123078;28;19977;-58
2022/05/24 10:27:54;;;;;;;;;;;22.00;44.20;;;;;;5128551;28;19924;-58
2022/05/24 10:30:23;;;;;;;;;;;22.10;43.80;;;;;;5123093;28;19931;-57
2022/05/24 10:38:48;;;;;;;;;;;21.80;43.80;;;;;;5126397;28;19927;-58
2022/05/24 10:41:15;;;;;;;;;;;21.40;43.90;;;;;;5122323;28;20010;-59
2022/05/24 10:43:47;;;;;;;;;;;21.20;43.20;;;;;;5087672;28;19930;-55
2022/05/24 10:46:17;;;;;;;;;;;21.20;43.20;;;;;;5128396;28;19927;-58
2022/05/24 10:48:48;;;;;;;;;;;21.40;44.80;;;;;;5100073;28;22550;-57
2022/05/24 10:51:37;;;;;;;;;;;21.60;44.50;;;;;;5128167;28;20030;-58
2022/05/24 10:54:14;;;;;;;;;;;21.80;43.90;;;;;;5127446;28;19934;-58
2022/05/24 10:56:47;;;;;;;;;;;21.80;43.50;;;;;;5101917;28;19933;-59
2022/05/24 10:59:31;;;;;;;;;;;21.80;43.20;;;;;;5103676;28;19924;-57
2022/05/24 11:01:58;;;;;;;;;;;21.80;43.00;;;;;;5127965;28;19931;-59
2022/05/24 11:04:34;;;;;;;;;;;21.80;42.70;;;;;;5104370;28;20157;-58
2022/05/24 11:07:02;;;;;;;;;;;21.80;42.70;;;;;;5104603;28;20413;-57
2022/05/24 11:09:28;;;;;;;;;;;21.90;42.60;;;;;;5109709;28;19929;-57
2022/05/24 11:12:03;;;;;;;;;;;21.90;42.80;;;;;;5104183;28;19931;-59
2022/05/24 11:14:38;;;;;;;;;;;21.90;43.00;;;;;;5124549;28;19945;-56
2022/05/24 11:17:04;;;;;;;;;;;21.90;42.90;;;;;;5126751;28;20498;-59
2022/05/24 11:19:31;;;;;;;;;;;21.90;43.10;;;;;;5121349;27;19927;-59
2022/05/24 11:22:06;;;;;;;;;;;21.90;43.20;;;;;;5109298;28;19924;-58
2022/05/24 11:24:40;;;;;;;;;;;22.00;43.10;;;;;;5122210;28;19927;-59
2022/05/24 11:27:06;;;;;;;;;;;22.00;43.00;;;;;;5122398;28;20393;-59
2022/05/24 11:29:38;;;;;;;;;;;22.00;42.80;;;;;;5123544;28;19923;-58
2022/05/24 11:32:06;;;;;;;;;;;22.00;42.90;;;;;;5102249;28;19927;-59
2022/05/24 11:34:33;;;;;;;;;;;22.00;42.90;;;;;;5102910;28;19987;-59
2022/05/24 11:37:14;;;;;;;;;;;22.10;42.40;;;;;;5127159;28;20016;-58
2022/05/24 11:39:40;;;;;;;;;;;22.10;42.40;;;;;;5122201;28;20014;-58
2022/05/24 11:42:19;;;;;;;;;;;22.10;42.20;;;;;;5085327;28;19934;-59
2022/05/24 11:44:45;;;;;;;;;;;22.00;42.30;;;;;;5127484;28;19924;-60
2022/05/24 11:47:30;;;;;;;;;;;22.00;42.10;;;;;;5122053;28;20386;-58
2022/05/24 11:49:56;;;;;;;;;;;22.00;42.20;;;;;;5120719;28;20018;-58
2022/05/24 11:52:41;;;;;;;;;;;22.10;42.00;;;;;;5125268;28;20229;-57
2022/05/24 11:55:08;;;;;;;;;;;22.00;42.20;;;;;;5121576;28;19958;-59
2022/05/24 11:57:37;;;;;;;;;;;22.00;42.20;;;;;;5121770;28;19931;-59
2022/05/24 12:00:04;;;;;;;;;;;22.10;42.10;;;;;;5126706;27;19930;-58
2022/05/24 12:02:34;;;;;;;;;;;22.10;42.10;;;;;;5121945;28;19938;-59
2022/05/24 12:07:55;;;;;;;;;;;20.90;44.20;;;;;;5052146;28;19930;-58
2022/05/24 12:10:21;;;;;;;;;;;20.00;46.70;;;;;;5120130;28;19924;-58
2022/05/24 12:12:47;;;;;;;;;;;21.10;44.40;;;;;;5121101;28;19931;-56
2022/05/24 12:15:19;;;;;;;;;;;21.60;43.30;;;;;;5126554;28;20120;-59
2022/05/24 12:17:46;;;;;;;;;;;21.80;43.10;;;;;;5121423;28;19927;-58
2022/05/24 12:20:31;;;;;;;;;;;21.90;42.90;;;;;;5108356;28;19934;-58
2022/05/24 12:23:02;;;;;;;;;;;21.80;43.30;;;;;;5126550;28;19934;-59
2022/05/24 12:25:47;;;;;;;;;;;21.90;43.10;;;;;;5121426;28;20108;-58
2022/05/24 12:28:13;;;;;;;;;;;21.90;42.80;;;;;;5119597;28;19931;-56
2022/05/24 12:30:39;;;;;;;;;;;21.90;42.80;;;;;;5105771;28;19930;-58
2022/05/24 12:33:11;;;;;;;;;;;21.90;42.90;;;;;;5102886;28;19930;-56
2022/05/24 12:35:37;;;;;;;;;;;22.00;42.80;;;;;;5126504;28;20274;-58
2022/05/24 12:38:03;;;;;;;;;;;22.10;42.50;;;;;;5121136;28;19927;-57
2022/05/24 12:40:29;;;;;;;;;;;22.10;42.10;;;;;;5121417;28;19923;-59
2022/05/24 12:42:56;;;;;;;;;;;22.10;42.30;;;;;;5108111;28;19923;-58
2022/05/24 12:45:32;;;;;;;;;;;21.90;42.50;;;;;;5119412;28;19938;-57
2022/05/24 12:47:58;;;;;;;;;;;21.40;42.50;;;;;;5119999;28;20027;-58
2022/05/24 12:50:34;;;;;;;;;;;21.30;41.90;;;;;;5125961;28;19927;-58
2022/05/24 12:53:04;;;;;;;;;;;21.30;42.90;;;;;;5121293;28;19928;-58
2022/05/24 12:58:32;;;;;;;;;;;21.80;42.20;;;;;;5126413;28;20068;-58
2022/05/24 13:01:07;;;;;;;;;;;21.90;41.90;;;;;;5102748;28;20245;-56
2022/05/24 13:03:32;;;;;;;;;;;22.10;41.60;;;;;;5119840;28;19923;-55
2022/05/24 13:05:58;;;;;;;;;;;22.00;41.70;;;;;;5124377;28;19931;-57
2022/05/24 13:08:25;;;;;;;;;;;22.00;41.40;;;;;;5120590;28;19931;-56
2022/05/24 13:10:51;;;;;;;;;;;22.00;41.10;;;;;;5121226;28;19976;-55
2022/05/24 13:13:19;;;;;;;;;;;22.10;40.80;;;;;;5125157;27;20341;-56
2022/05/24 13:15:52;;;;;;;;;;;22.10;40.60;;;;;;5103444;28;19987;-54
2022/05/24 13:18:19;;;;;;;;;;;21.20;42.30;;;;;;5091004;28;20014;-49
2022/05/24 13:20:46;;;;;;;;;;;19.80;45.40;;;;;;5102831;28;19963;-47
2022/05/24 13:23:15;;;;;;;;;;;20.50;44.60;;;;;;5120708;28;20438;-49
2022/05/24 13:25:54;;;;;;;;;;;21.30;42.60;;;;;;5125684;28;20026;-48
2022/05/24 13:28:35;;;;;;;;;;;21.60;42.00;;;;;;5086623;28;19976;-50
2022/05/24 13:33:52;;;;;;;;;;;21.90;41.10;;;;;;5125178;28;19930;-52
2022/05/24 13:36:20;;;;;;;;;;;22.00;41.30;;;;;;5104501;28;20370;-49
2022/05/24 13:39:09;;;;;;;;;;;21.90;41.30;;;;;;5121979;28;20512;-50
2022/05/24 13:41:39;;;;;;;;;;;21.90;41.40;;;;;;5110226;27;19927;-53
2022/05/24 13:44:06;;;;;;;;;;;22.00;41.20;;;;;;5104748;28;19935;-51
2022/05/24 13:46:45;;;;;;;;;;;22.00;41.20;;;;;;5121500;28;19924;-51
2022/05/24 13:49:23;;;;;;;;;;;22.10;41.20;;;;;;5124752;28;19928;-50
2022/05/24 13:51:49;;;;;;;;;;;22.10;41.00;;;;;;5105130;28;20018;-50
2022/05/24 13:54:31;;;;;;;;;;;22.10;41.00;;;;;;5102966;28;20582;-47
2022/05/24 13:56:57;;;;;;;;;;;22.10;41.00;;;;;;5125500;28;20034;-50
2022/05/24 13:59:23;;;;;;;;;;;22.10;40.70;;;;;;5119418;28;19939;-50
2022/05/24 14:01:50;;;;;;;;;;;22.20;40.40;;;;;;5120326;28;20017;-51
2022/05/24 14:04:20;;;;;;;;;;;22.20;40.30;;;;;;5106921;28;20036;-49
2022/05/24 14:06:58;;;;;;;;;;;22.10;40.40;;;;;;5103214;28;20010;-52
2022/05/24 14:09:24;;;;;;;;;;;22.00;40.20;;;;;;5120818;28;20014;-52
2022/05/24 14:11:53;;;;;;;;;;;20.30;44.10;;;;;;5125717;28;19927;-48
2022/05/24 14:14:20;;;;;;;;;;;19.80;45.80;;;;;;5121364;28;20419;-46
2022/05/24 14:16:46;;;;;;;;;;;20.90;43.50;;;;;;5120454;28;19937;-52
2022/05/24 14:19:12;;;;;;;;;;;21.60;41.80;;;;;;5123856;28;20363;-48
2022/05/24 14:21:40;;;;;;;;;;;21.80;41.20;;;;;;5120976;28;19942;-49
2022/05/24 14:24:12;;;;;;;;;;;21.80;41.20;;;;;;5126812;27;20298;-47
2022/05/24 14:26:39;;;;;;;;;;;21.90;41.20;;;;;;5108610;28;19931;-47
2022/05/24 14:29:05;;;;;;;;;;;21.90;41.30;;;;;;5104383;28;20014;-49
2022/05/24 14:31:31;;;;;;;;;;;21.90;41.50;;;;;;5128962;28;19928;-46
2022/05/24 14:33:57;;;;;;;;;;;22.10;41.20;;;;;;5107391;27;20457;-48
2022/05/24 14:36:22;;;;;;;;;;;22.00;41.30;;;;;;5143373;27;20331;-50
2022/05/24 14:38:48;;;;;;;;;;;22.10;41.20;;;;;;5148706;27;19946;-48
2022/05/24 14:41:17;;;;;;;;;;;22.10;41.10;;;;;;5144491;27;19927;-51
2022/05/24 14:43:47;;;;;;;;;;;22.10;41.20;;;;;;5144841;27;20022;-52
2022/05/24 14:46:13;;;;;;;;;;;21.80;41.60;;;;;;5118837;27;19924;-51
2022/05/24 14:48:39;;;;;;;;;;;19.90;45.60;;;;;;5144094;27;20335;-49
2022/05/24 14:51:05;;;;;;;;;;;19.80;46.70;;;;;;5149465;27;19935;-46
2022/05/24 14:53:34;;;;;;;;;;;21.20;44.00;;;;;;5142686;27;19927;-47
2022/05/24 14:55:59;;;;;;;;;;;21.60;42.90;;;;;;5143715;27;19972;-48
2022/05/24 14:58:26;;;;;;;;;;;20.70;44.40;;;;;;5122048;27;19924;-47
2022/05/24 15:00:51;;;;;;;;;;;20.30;45.00;;;;;;5143739;27;19980;-46
2022/05/24 15:03:17;;;;;;;;;;;20.10;45.10;;;;;;5125254;27;20030;-46
2022/05/24 15:05:43;;;;;;;;;;;20.10;45.30;;;;;;5114377;27;19942;-48
2022/05/24 15:16:23;;;;;;;;;;;19.80;45.60;;;;;;5143407;27;19938;-45
2022/05/24 15:18:49;;;;;;;;;;;19.80;45.80;;;;;;5143599;27;20205;-49
2022/05/24 15:21:15;;;;;;;;;;;19.70;46.30;;;;;;5130117;27;19927;-45
2022/05/24 15:23:41;;;;;;;;;;;20.00;45.90;;;;;;5143797;27;20013;-47